Avalon, Texas
Current Conditions -  °F | °C
As of 10:15 AM on Friday 19 Dec 2014 (Local Time) from KJWY Reporting Station
Haze Haze  
Wind Chill: 43°   Ceiling: 200
Heat Index: 46°   Visibility: 2.5mi
Dew Point: 46°   Wind: 6mph
Humidity: 100%   Direction: 20°NNE
Pressure: 30.2"   Gusts: NA
Location:  32.21°N, 96.79°W
Report Text: KJWY 191615Z AUTO 02005KT 2 1/2SM BR OVC002 08/08 A3020 RMK AO2 T00780078
Loading
Personal Weather Stations






























Interactive Weather Map New forecast layout! Learn more

10-Day Weather Forecast

Advertisements
Track Severe Weather on mobile